sensor_id;sensor_type;location;lat;lon;timestamp;P1;durP1;ratioP1;P2;durP2;ratioP2
5787;SDS011;2920;48.158;12.254;2022-12-13T00:01:22;13.93;;;7.10;;
5787;SDS011;2920;48.158;12.254;2022-12-13T00:03:48;36.25;;;13.30;;
5787;SDS011;2920;48.158;12.254;2022-12-13T00:06:13;24.83;;;9.52;;
5787;SDS011;2920;48.158;12.254;2022-12-13T00:08:39;13.25;;;6.82;;
5787;SDS011;2920;48.158;12.254;2022-12-13T00:11:06;16.05;;;7.38;;
5787;SDS011;2920;48.158;12.254;2022-12-13T00:13:32;13.65;;;7.15;;
5787;SDS011;2920;48.158;12.254;2022-12-13T00:15:59;16.88;;;7.10;;
5787;SDS011;2920;48.158;12.254;2022-12-13T00:18:29;13.48;;;6.40;;
5787;SDS011;2920;48.158;12.254;2022-12-13T00:20:54;16.92;;;7.60;;
5787;SDS011;2920;48.158;12.254;2022-12-13T00:23:19;17.52;;;7.53;;
5787;SDS011;2920;48.158;12.254;2022-12-13T00:25:45;15.00;;;7.05;;
5787;SDS011;2920;48.158;12.254;2022-12-13T00:28:11;16.55;;;7.70;;
5787;SDS011;2920;48.158;12.254;2022-12-13T00:30:37;14.52;;;6.97;;
5787;SDS011;2920;48.158;12.254;2022-12-13T00:33:03;16.92;;;6.90;;
5787;SDS011;2920;48.158;12.254;2022-12-13T00:35:30;21.38;;;8.10;;
5787;SDS011;2920;48.158;12.254;2022-12-13T00:37:56;24.92;;;8.95;;
5787;SDS011;2920;48.158;12.254;2022-12-13T00:40:21;21.38;;;9.70;;
5787;SDS011;2920;48.158;12.254;2022-12-13T00:42:46;14.20;;;6.93;;
5787;SDS011;2920;48.158;12.254;2022-12-13T00:45:11;20.17;;;8.70;;
5787;SDS011;2920;48.158;12.254;2022-12-13T00:47:37;16.55;;;6.93;;
5787;SDS011;2920;48.158;12.254;2022-12-13T00:50:03;14.02;;;6.47;;
5787;SDS011;2920;48.158;12.254;2022-12-13T00:52:29;12.15;;;5.68;;
5787;SDS011;2920;48.158;12.254;2022-12-13T00:54:54;17.73;;;6.97;;
5787;SDS011;2920;48.158;12.254;2022-12-13T00:57:19;14.65;;;7.35;;
5787;SDS011;2920;48.158;12.254;2022-12-13T00:59:45;14.20;;;7.50;;
5787;SDS011;2920;48.158;12.254;2022-12-13T01:02:10;18.25;;;6.60;;
5787;SDS011;2920;48.158;12.254;2022-12-13T01:04:36;13.57;;;6.65;;
5787;SDS011;2920;48.158;12.254;2022-12-13T01:07:01;15.02;;;6.40;;
5787;SDS011;2920;48.158;12.254;2022-12-13T01:09:27;15.90;;;7.80;;
5787;SDS011;2920;48.158;12.254;2022-12-13T01:11:55;11.30;;;5.43;;
5787;SDS011;2920;48.158;12.254;2022-12-13T01:14:24;17.17;;;6.40;;
5787;SDS011;2920;48.158;12.254;2022-12-13T01:16:50;12.00;;;5.85;;
5787;SDS011;2920;48.158;12.254;2022-12-13T01:19:19;15.35;;;6.63;;
5787;SDS011;2920;48.158;12.254;2022-12-13T01:21:45;11.77;;;5.82;;
5787;SDS011;2920;48.158;12.254;2022-12-13T01:24:11;13.57;;;6.00;;
5787;SDS011;2920;48.158;12.254;2022-12-13T01:26:36;9.68;;;5.65;;
5787;SDS011;2920;48.158;12.254;2022-12-13T01:29:02;7.15;;;4.90;;
5787;SDS011;2920;48.158;12.254;2022-12-13T01:31:29;10.48;;;5.55;;
5787;SDS011;2920;48.158;12.254;2022-12-13T01:33:55;12.77;;;6.05;;
5787;SDS011;2920;48.158;12.254;2022-12-13T01:36:21;24.20;;;8.73;;
5787;SDS011;2920;48.158;12.254;2022-12-13T01:38:46;15.38;;;8.02;;
5787;SDS011;2920;48.158;12.254;2022-12-13T01:41:13;9.48;;;5.18;;
5787;SDS011;2920;48.158;12.254;2022-12-13T01:46:05;14.45;;;5.63;;
5787;SDS011;2920;48.158;12.254;2022-12-13T01:48:32;10.85;;;5.38;;
5787;SDS011;2920;48.158;12.254;2022-12-13T01:51:03;13.10;;;5.10;;
5787;SDS011;2920;48.158;12.254;2022-12-13T01:53:30;8.10;;;5.65;;
5787;SDS011;2920;48.158;12.254;2022-12-13T01:56:00;13.82;;;5.78;;
5787;SDS011;2920;48.158;12.254;2022-12-13T01:58:28;16.20;;;5.43;;
5787;SDS011;2920;48.158;12.254;2022-12-13T02:00:53;12.38;;;5.63;;
5787;SDS011;2920;48.158;12.254;2022-12-13T02:03:20;7.90;;;4.57;;
5787;SDS011;2920;48.158;12.254;2022-12-13T02:06:00;9.15;;;4.57;;
5787;SDS011;2920;48.158;12.254;2022-12-13T02:08:28;10.50;;;5.28;;
5787;SDS011;2920;48.158;12.254;2022-12-13T02:10:54;9.95;;;5.60;;
5787;SDS011;2920;48.158;12.254;2022-12-13T02:13:20;10.23;;;5.13;;
5787;SDS011;2920;48.158;12.254;2022-12-13T02:15:48;12.05;;;5.45;;
5787;SDS011;2920;48.158;12.254;2022-12-13T02:21:18;12.90;;;7.43;;
5787;SDS011;2920;48.158;12.254;2022-12-13T02:27:03;11.75;;;6.15;;
5787;SDS011;2920;48.158;12.254;2022-12-13T02:35:50;12.35;;;4.93;;
5787;SDS011;2920;48.158;12.254;2022-12-13T02:38:51;11.32;;;5.43;;
5787;SDS011;2920;48.158;12.254;2022-12-13T02:41:40;7.00;;;4.45;;
5787;SDS011;2920;48.158;12.254;2022-12-13T02:44:23;8.68;;;4.30;;
5787;SDS011;2920;48.158;12.254;2022-12-13T02:46:51;7.50;;;4.43;;
5787;SDS011;2920;48.158;12.254;2022-12-13T02:49:26;11.38;;;4.95;;
5787;SDS011;2920;48.158;12.254;2022-12-13T02:51:54;12.32;;;5.75;;
5787;SDS011;2920;48.158;12.254;2022-12-13T02:54:21;9.32;;;5.45;;
5787;SDS011;2920;48.158;12.254;2022-12-13T02:56:57;13.32;;;6.40;;
5787;SDS011;2920;48.158;12.254;2022-12-13T02:59:24;7.82;;;3.95;;
5787;SDS011;2920;48.158;12.254;2022-12-13T03:02:11;7.47;;;4.45;;
5787;SDS011;2920;48.158;12.254;2022-12-13T03:04:54;7.97;;;3.78;;
5787;SDS011;2920;48.158;12.254;2022-12-13T03:07:51;9.10;;;4.25;;
5787;SDS011;2920;48.158;12.254;2022-12-13T03:10:30;11.03;;;5.57;;
5787;SDS011;2920;48.158;12.254;2022-12-13T03:13:01;11.15;;;5.30;;
5787;SDS011;2920;48.158;12.254;2022-12-13T03:15:58;15.73;;;7.65;;
5787;SDS011;2920;48.158;12.254;2022-12-13T03:18:25;7.15;;;4.78;;
5787;SDS011;2920;48.158;12.254;2022-12-13T03:20:52;10.57;;;5.90;;
5787;SDS011;2920;48.158;12.254;2022-12-13T03:23:24;10.55;;;5.30;;
5787;SDS011;2920;48.158;12.254;2022-12-13T03:25:51;11.60;;;5.60;;
5787;SDS011;2920;48.158;12.254;2022-12-13T03:28:18;14.63;;;6.70;;
5787;SDS011;2920;48.158;12.254;2022-12-13T03:30:44;11.20;;;5.80;;
5787;SDS011;2920;48.158;12.254;2022-12-13T03:33:09;10.45;;;5.80;;
5787;SDS011;2920;48.158;12.254;2022-12-13T03:35:34;11.95;;;5.50;;
5787;SDS011;2920;48.158;12.254;2022-12-13T03:38:00;8.32;;;4.80;;
5787;SDS011;2920;48.158;12.254;2022-12-13T03:40:26;15.05;;;5.65;;
5787;SDS011;2920;48.158;12.254;2022-12-13T03:42:52;10.18;;;5.05;;
5787;SDS011;2920;48.158;12.254;2022-12-13T03:45:18;10.20;;;5.63;;
5787;SDS011;2920;48.158;12.254;2022-12-13T03:47:44;11.60;;;5.97;;
5787;SDS011;2920;48.158;12.254;2022-12-13T03:50:10;15.63;;;6.50;;
5787;SDS011;2920;48.158;12.254;2022-12-13T03:52:35;13.55;;;6.85;;
5787;SDS011;2920;48.158;12.254;2022-12-13T03:55:00;10.45;;;5.68;;
5787;SDS011;2920;48.158;12.254;2022-12-13T03:57:26;14.05;;;5.88;;
5787;SDS011;2920;48.158;12.254;2022-12-13T03:59:51;10.73;;;6.05;;
5787;SDS011;2920;48.158;12.254;2022-12-13T04:02:16;8.85;;;5.13;;
5787;SDS011;2920;48.158;12.254;2022-12-13T04:04:42;10.38;;;6.40;;
5787;SDS011;2920;48.158;12.254;2022-12-13T04:07:07;8.02;;;5.13;;
5787;SDS011;2920;48.158;12.254;2022-12-13T04:09:32;11.88;;;6.30;;
5787;SDS011;2920;48.158;12.254;2022-12-13T04:11:58;11.85;;;6.45;;
5787;SDS011;2920;48.158;12.254;2022-12-13T04:14:42;15.82;;;7.32;;
5787;SDS011;2920;48.158;12.254;2022-12-13T04:17:07;9.93;;;6.05;;
5787;SDS011;2920;48.158;12.254;2022-12-13T04:19:32;15.32;;;7.65;;
5787;SDS011;2920;48.158;12.254;2022-12-13T04:21:57;9.18;;;5.13;;
5787;SDS011;2920;48.158;12.254;2022-12-13T04:24:23;11.63;;;6.60;;
5787;SDS011;2920;48.158;12.254;2022-12-13T04:26:49;10.98;;;5.40;;
5787;SDS011;2920;48.158;12.254;2022-12-13T04:29:14;10.40;;;4.82;;
5787;SDS011;2920;48.158;12.254;2022-12-13T04:31:40;13.98;;;6.57;;
5787;SDS011;2920;48.158;12.254;2022-12-13T04:34:05;7.15;;;3.78;;
5787;SDS011;2920;48.158;12.254;2022-12-13T04:36:30;12.30;;;5.90;;
5787;SDS011;2920;48.158;12.254;2022-12-13T04:38:56;13.10;;;5.65;;
5787;SDS011;2920;48.158;12.254;2022-12-13T04:41:21;15.05;;;7.28;;
5787;SDS011;2920;48.158;12.254;2022-12-13T04:43:50;12.15;;;5.78;;
5787;SDS011;2920;48.158;12.254;2022-12-13T04:46:17;5.70;;;4.07;;
5787;SDS011;2920;48.158;12.254;2022-12-13T04:48:43;20.10;;;6.45;;
5787;SDS011;2920;48.158;12.254;2022-12-13T04:51:08;13.40;;;4.78;;
5787;SDS011;2920;48.158;12.254;2022-12-13T04:53:33;13.77;;;6.15;;
5787;SDS011;2920;48.158;12.254;2022-12-13T04:56:00;10.68;;;5.15;;
5787;SDS011;2920;48.158;12.254;2022-12-13T04:58:27;11.85;;;6.15;;
5787;SDS011;2920;48.158;12.254;2022-12-13T05:00:52;17.65;;;6.57;;
5787;SDS011;2920;48.158;12.254;2022-12-13T05:03:17;5.85;;;4.35;;
5787;SDS011;2920;48.158;12.254;2022-12-13T05:05:43;15.45;;;6.68;;
5787;SDS011;2920;48.158;12.254;2022-12-13T05:08:08;12.25;;;6.53;;
5787;SDS011;2920;48.158;12.254;2022-12-13T05:10:33;20.55;;;7.43;;
5787;SDS011;2920;48.158;12.254;2022-12-13T05:12:59;11.95;;;5.75;;
5787;SDS011;2920;48.158;12.254;2022-12-13T05:15:25;9.13;;;5.50;;
5787;SDS011;2920;48.158;12.254;2022-12-13T05:17:50;9.65;;;4.25;;
5787;SDS011;2920;48.158;12.254;2022-12-13T05:20:16;12.85;;;6.25;;
5787;SDS011;2920;48.158;12.254;2022-12-13T05:22:41;11.10;;;5.82;;
5787;SDS011;2920;48.158;12.254;2022-12-13T05:25:06;14.27;;;6.85;;
5787;SDS011;2920;48.158;12.254;2022-12-13T05:27:32;10.20;;;5.40;;
5787;SDS011;2920;48.158;12.254;2022-12-13T05:29:57;16.20;;;4.80;;
5787;SDS011;2920;48.158;12.254;2022-12-13T05:32:23;13.13;;;6.18;;
5787;SDS011;2920;48.158;12.254;2022-12-13T05:34:48;12.23;;;6.18;;
5787;SDS011;2920;48.158;12.254;2022-12-13T05:37:14;16.73;;;6.82;;
5787;SDS011;2920;48.158;12.254;2022-12-13T05:39:39;14.40;;;7.03;;
5787;SDS011;2920;48.158;12.254;2022-12-13T05:42:04;8.95;;;3.78;;
5787;SDS011;2920;48.158;12.254;2022-12-13T05:44:30;8.40;;;4.93;;
5787;SDS011;2920;48.158;12.254;2022-12-13T05:46:56;8.77;;;5.47;;
5787;SDS011;2920;48.158;12.254;2022-12-13T05:49:21;10.70;;;6.18;;
5787;SDS011;2920;48.158;12.254;2022-12-13T05:51:47;13.77;;;6.97;;
5787;SDS011;2920;48.158;12.254;2022-12-13T05:54:12;12.55;;;5.22;;
5787;SDS011;2920;48.158;12.254;2022-12-13T05:56:37;14.05;;;5.88;;
5787;SDS011;2920;48.158;12.254;2022-12-13T05:59:02;13.00;;;5.53;;
5787;SDS011;2920;48.158;12.254;2022-12-13T06:01:28;14.23;;;6.07;;
5787;SDS011;2920;48.158;12.254;2022-12-13T06:03:53;12.27;;;5.60;;
5787;SDS011;2920;48.158;12.254;2022-12-13T06:06:18;8.30;;;5.55;;
5787;SDS011;2920;48.158;12.254;2022-12-13T06:08:45;10.82;;;7.00;;
5787;SDS011;2920;48.158;12.254;2022-12-13T06:11:10;18.83;;;7.32;;
5787;SDS011;2920;48.158;12.254;2022-12-13T06:13:35;19.05;;;7.30;;
5787;SDS011;2920;48.158;12.254;2022-12-13T06:16:02;11.13;;;5.68;;
5787;SDS011;2920;48.158;12.254;2022-12-13T06:18:30;14.70;;;6.68;;
5787;SDS011;2920;48.158;12.254;2022-12-13T06:20:56;17.23;;;6.88;;
5787;SDS011;2920;48.158;12.254;2022-12-13T06:23:22;18.33;;;7.88;;
5787;SDS011;2920;48.158;12.254;2022-12-13T06:25:48;39.10;;;17.77;;
5787;SDS011;2920;48.158;12.254;2022-12-13T06:28:13;37.65;;;15.65;;
5787;SDS011;2920;48.158;12.254;2022-12-13T06:30:39;25.98;;;11.07;;
5787;SDS011;2920;48.158;12.254;2022-12-13T06:33:04;28.52;;;10.25;;
5787;SDS011;2920;48.158;12.254;2022-12-13T06:35:29;19.63;;;8.60;;
5787;SDS011;2920;48.158;12.254;2022-12-13T06:37:55;12.88;;;6.70;;
5787;SDS011;2920;48.158;12.254;2022-12-13T06:40:23;18.67;;;7.82;;
5787;SDS011;2920;48.158;12.254;2022-12-13T06:42:49;14.70;;;6.40;;
5787;SDS011;2920;48.158;12.254;2022-12-13T06:45:14;12.30;;;5.25;;
5787;SDS011;2920;48.158;12.254;2022-12-13T06:47:39;10.00;;;6.20;;
5787;SDS011;2920;48.158;12.254;2022-12-13T06:50:05;11.82;;;5.93;;
5787;SDS011;2920;48.158;12.254;2022-12-13T06:52:30;18.80;;;7.03;;
5787;SDS011;2920;48.158;12.254;2022-12-13T06:54:56;19.65;;;8.55;;
5787;SDS011;2920;48.158;12.254;2022-12-13T06:57:21;21.98;;;8.57;;
5787;SDS011;2920;48.158;12.254;2022-12-13T06:59:46;19.15;;;7.30;;
5787;SDS011;2920;48.158;12.254;2022-12-13T07:02:12;14.07;;;6.57;;
5787;SDS011;2920;48.158;12.254;2022-12-13T07:04:37;16.33;;;6.90;;
5787;SDS011;2920;48.158;12.254;2022-12-13T07:07:02;12.68;;;6.93;;
5787;SDS011;2920;48.158;12.254;2022-12-13T07:09:31;26.27;;;8.45;;
5787;SDS011;2920;48.158;12.254;2022-12-13T07:11:57;19.33;;;8.25;;
5787;SDS011;2920;48.158;12.254;2022-12-13T07:14:23;19.50;;;8.70;;
5787;SDS011;2920;48.158;12.254;2022-12-13T07:16:48;14.80;;;7.97;;
5787;SDS011;2920;48.158;12.254;2022-12-13T07:19:13;11.85;;;5.82;;
5787;SDS011;2920;48.158;12.254;2022-12-13T07:21:39;14.02;;;7.35;;
5787;SDS011;2920;48.158;12.254;2022-12-13T07:24:04;31.45;;;12.30;;
5787;SDS011;2920;48.158;12.254;2022-12-13T07:26:30;26.60;;;11.07;;
5787;SDS011;2920;48.158;12.254;2022-12-13T07:28:55;42.40;;;14.50;;
5787;SDS011;2920;48.158;12.254;2022-12-13T07:31:21;27.10;;;12.02;;
5787;SDS011;2920;48.158;12.254;2022-12-13T07:33:48;18.83;;;8.40;;
5787;SDS011;2920;48.158;12.254;2022-12-13T07:36:15;25.20;;;9.18;;
5787;SDS011;2920;48.158;12.254;2022-12-13T07:38:42;20.80;;;9.52;;
5787;SDS011;2920;48.158;12.254;2022-12-13T07:41:07;17.92;;;7.35;;
5787;SDS011;2920;48.158;12.254;2022-12-13T07:43:33;23.48;;;10.15;;
5787;SDS011;2920;48.158;12.254;2022-12-13T07:46:00;26.02;;;9.63;;
5787;SDS011;2920;48.158;12.254;2022-12-13T07:48:27;22.38;;;11.60;;
5787;SDS011;2920;48.158;12.254;2022-12-13T07:50:53;22.92;;;8.57;;
5787;SDS011;2920;48.158;12.254;2022-12-13T07:53:19;20.80;;;8.77;;
5787;SDS011;2920;48.158;12.254;2022-12-13T07:55:45;18.20;;;8.77;;
5787;SDS011;2920;48.158;12.254;2022-12-13T07:58:12;22.60;;;7.95;;
5787;SDS011;2920;48.158;12.254;2022-12-13T08:00:38;18.90;;;8.30;;
5787;SDS011;2920;48.158;12.254;2022-12-13T08:03:14;14.52;;;7.90;;
5787;SDS011;2920;48.158;12.254;2022-12-13T08:05:39;17.40;;;7.82;;
5787;SDS011;2920;48.158;12.254;2022-12-13T08:08:06;23.48;;;11.13;;
5787;SDS011;2920;48.158;12.254;2022-12-13T08:10:32;15.85;;;7.43;;
5787;SDS011;2920;48.158;12.254;2022-12-13T08:12:57;21.33;;;8.57;;
5787;SDS011;2920;48.158;12.254;2022-12-13T08:15:23;16.75;;;7.25;;
5787;SDS011;2920;48.158;12.254;2022-12-13T08:17:49;20.05;;;7.93;;
5787;SDS011;2920;48.158;12.254;2022-12-13T08:20:15;25.98;;;11.27;;
5787;SDS011;2920;48.158;12.254;2022-12-13T08:22:41;22.13;;;8.90;;
5787;SDS011;2920;48.158;12.254;2022-12-13T08:25:06;20.50;;;8.85;;
5787;SDS011;2920;48.158;12.254;2022-12-13T08:27:32;19.10;;;8.65;;
5787;SDS011;2920;48.158;12.254;2022-12-13T08:29:57;21.77;;;10.68;;
5787;SDS011;2920;48.158;12.254;2022-12-13T08:32:23;33.30;;;12.82;;
5787;SDS011;2920;48.158;12.254;2022-12-13T08:34:48;23.98;;;10.48;;
5787;SDS011;2920;48.158;12.254;2022-12-13T08:37:13;19.30;;;7.40;;
5787;SDS011;2920;48.158;12.254;2022-12-13T08:39:39;16.00;;;7.13;;
5787;SDS011;2920;48.158;12.254;2022-12-13T08:42:09;30.73;;;10.25;;
5787;SDS011;2920;48.158;12.254;2022-12-13T08:44:37;18.23;;;9.10;;
5787;SDS011;2920;48.158;12.254;2022-12-13T08:47:03;23.20;;;9.38;;
5787;SDS011;2920;48.158;12.254;2022-12-13T08:49:28;23.70;;;8.98;;
5787;SDS011;2920;48.158;12.254;2022-12-13T08:51:53;32.13;;;9.18;;
5787;SDS011;2920;48.158;12.254;2022-12-13T08:54:19;22.70;;;9.80;;
5787;SDS011;2920;48.158;12.254;2022-12-13T08:56:44;16.13;;;8.45;;
5787;SDS011;2920;48.158;12.254;2022-12-13T08:59:09;23.40;;;9.73;;
5787;SDS011;2920;48.158;12.254;2022-12-13T09:01:34;27.52;;;9.50;;
5787;SDS011;2920;48.158;12.254;2022-12-13T09:04:00;17.90;;;6.80;;
5787;SDS011;2920;48.158;12.254;2022-12-13T09:06:25;18.05;;;6.93;;
5787;SDS011;2920;48.158;12.254;2022-12-13T09:08:53;18.85;;;8.35;;
5787;SDS011;2920;48.158;12.254;2022-12-13T09:11:19;20.67;;;6.23;;
5787;SDS011;2920;48.158;12.254;2022-12-13T09:13:45;24.30;;;8.70;;
5787;SDS011;2920;48.158;12.254;2022-12-13T09:16:12;27.30;;;10.27;;
5787;SDS011;2920;48.158;12.254;2022-12-13T09:18:38;22.50;;;8.88;;
5787;SDS011;2920;48.158;12.254;2022-12-13T09:21:05;17.48;;;7.53;;
5787;SDS011;2920;48.158;12.254;2022-12-13T09:23:31;15.95;;;7.45;;
5787;SDS011;2920;48.158;12.254;2022-12-13T09:25:58;21.88;;;8.73;;
5787;SDS011;2920;48.158;12.254;2022-12-13T09:28:24;19.65;;;8.82;;
5787;SDS011;2920;48.158;12.254;2022-12-13T09:30:50;23.67;;;9.13;;
5787;SDS011;2920;48.158;12.254;2022-12-13T09:33:15;16.35;;;7.50;;
5787;SDS011;2920;48.158;12.254;2022-12-13T09:35:41;25.67;;;10.00;;
5787;SDS011;2920;48.158;12.254;2022-12-13T09:38:06;18.45;;;8.55;;
5787;SDS011;2920;48.158;12.254;2022-12-13T09:40:32;23.85;;;10.57;;
5787;SDS011;2920;48.158;12.254;2022-12-13T09:42:58;20.92;;;9.85;;
5787;SDS011;2920;48.158;12.254;2022-12-13T09:45:24;24.30;;;9.38;;
5787;SDS011;2920;48.158;12.254;2022-12-13T09:47:50;18.13;;;9.52;;
5787;SDS011;2920;48.158;12.254;2022-12-13T09:50:33;20.92;;;7.60;;
5787;SDS011;2920;48.158;12.254;2022-12-13T09:52:59;28.23;;;10.65;;
5787;SDS011;2920;48.158;12.254;2022-12-13T09:55:37;21.42;;;9.90;;
5787;SDS011;2920;48.158;12.254;2022-12-13T09:58:05;24.67;;;9.68;;
5787;SDS011;2920;48.158;12.254;2022-12-13T10:00:35;24.10;;;11.02;;
5787;SDS011;2920;48.158;12.254;2022-12-13T10:03:00;21.20;;;10.10;;
5787;SDS011;2920;48.158;12.254;2022-12-13T10:07:54;23.67;;;9.52;;
5787;SDS011;2920;48.158;12.254;2022-12-13T10:10:21;18.80;;;8.80;;
5787;SDS011;2920;48.158;12.254;2022-12-13T10:15:34;22.48;;;10.25;;
5787;SDS011;2920;48.158;12.254;2022-12-13T10:18:02;20.40;;;10.13;;
5787;SDS011;2920;48.158;12.254;2022-12-13T10:20:27;25.08;;;9.38;;
5787;SDS011;2920;48.158;12.254;2022-12-13T10:22:53;18.83;;;9.48;;
5787;SDS011;2920;48.158;12.254;2022-12-13T10:25:38;20.17;;;9.32;;
5787;SDS011;2920;48.158;12.254;2022-12-13T10:28:25;24.27;;;9.07;;
5787;SDS011;2920;48.158;12.254;2022-12-13T10:30:53;21.52;;;9.32;;
5787;SDS011;2920;48.158;12.254;2022-12-13T10:33:36;20.88;;;10.48;;
5787;SDS011;2920;48.158;12.254;2022-12-13T10:36:11;21.17;;;9.60;;
5787;SDS011;2920;48.158;12.254;2022-12-13T10:38:41;22.30;;;8.88;;
5787;SDS011;2920;48.158;12.254;2022-12-13T10:46:49;22.88;;;9.27;;
5787;SDS011;2920;48.158;12.254;2022-12-13T10:49:18;23.37;;;9.37;;
5787;SDS011;2920;48.158;12.254;2022-12-13T10:51:46;21.55;;;8.55;;
5787;SDS011;2920;48.158;12.254;2022-12-13T10:54:15;18.67;;;9.13;;
5787;SDS011;2920;48.158;12.254;2022-12-13T10:56:50;19.95;;;8.40;;
5787;SDS011;2920;48.158;12.254;2022-12-13T11:01:55;21.10;;;8.63;;
5787;SDS011;2920;48.158;12.254;2022-12-13T11:04:25;21.75;;;9.80;;
5787;SDS011;2920;48.158;12.254;2022-12-13T11:06:56;18.70;;;7.88;;
5787;SDS011;2920;48.158;12.254;2022-12-13T11:09:24;17.50;;;8.05;;
5787;SDS011;2920;48.158;12.254;2022-12-13T11:11:51;16.58;;;7.88;;
5787;SDS011;2920;48.158;12.254;2022-12-13T11:14:18;19.42;;;9.13;;
5787;SDS011;2920;48.158;12.254;2022-12-13T11:16:48;16.92;;;7.90;;
5787;SDS011;2920;48.158;12.254;2022-12-13T11:22:01;20.17;;;8.45;;
5787;SDS011;2920;48.158;12.254;2022-12-13T11:24:28;22.77;;;7.88;;
5787;SDS011;2920;48.158;12.254;2022-12-13T11:30:02;20.73;;;8.35;;
5787;SDS011;2920;48.158;12.254;2022-12-13T11:32:44;20.27;;;9.68;;
5787;SDS011;2920;48.158;12.254;2022-12-13T11:35:25;20.48;;;8.95;;
5787;SDS011;2920;48.158;12.254;2022-12-13T11:38:04;19.15;;;8.93;;
5787;SDS011;2920;48.158;12.254;2022-12-13T11:40:42;20.08;;;9.00;;
5787;SDS011;2920;48.158;12.254;2022-12-13T11:43:22;22.02;;;10.10;;
5787;SDS011;2920;48.158;12.254;2022-12-13T11:45:52;21.00;;;9.45;;
5787;SDS011;2920;48.158;12.254;2022-12-13T11:51:04;21.05;;;9.00;;
5787;SDS011;2920;48.158;12.254;2022-12-13T11:56:32;20.08;;;8.48;;
5787;SDS011;2920;48.158;12.254;2022-12-13T11:59:14;22.92;;;8.48;;
5787;SDS011;2920;48.158;12.254;2022-12-13T12:01:53;26.00;;;10.43;;
5787;SDS011;2920;48.158;12.254;2022-12-13T12:04:29;22.35;;;8.93;;
5787;SDS011;2920;48.158;12.254;2022-12-13T12:09:36;19.63;;;8.65;;
5787;SDS011;2920;48.158;12.254;2022-12-13T12:12:09;19.00;;;8.80;;
5787;SDS011;2920;48.158;12.254;2022-12-13T12:14:40;17.67;;;8.55;;
5787;SDS011;2920;48.158;12.254;2022-12-13T12:17:12;19.27;;;9.88;;
5787;SDS011;2920;48.158;12.254;2022-12-13T12:19:39;25.10;;;10.00;;
5787;SDS011;2920;48.158;12.254;2022-12-13T12:52:35;22.33;;;10.52;;
5787;SDS011;2920;48.158;12.254;2022-12-13T12:55:26;18.20;;;8.68;;
5787;SDS011;2920;48.158;12.254;2022-12-13T13:01:29;16.70;;;8.55;;
5787;SDS011;2920;48.158;12.254;2022-12-13T13:03:42;20.48;;;9.02;;
5787;SDS011;2920;48.158;12.254;2022-12-13T13:06:10;20.25;;;8.75;;
5787;SDS011;2920;48.158;12.254;2022-12-13T13:11:20;16.73;;;8.85;;
5787;SDS011;2920;48.158;12.254;2022-12-13T13:13:51;16.90;;;8.27;;
5787;SDS011;2920;48.158;12.254;2022-12-13T13:16:34;15.73;;;8.05;;
5787;SDS011;2920;48.158;12.254;2022-12-13T13:19:03;21.55;;;9.30;;
5787;SDS011;2920;48.158;12.254;2022-12-13T13:21:52;16.35;;;7.40;;
5787;SDS011;2920;48.158;12.254;2022-12-13T13:26:52;18.88;;;9.35;;
5787;SDS011;2920;48.158;12.254;2022-12-13T13:34:46;15.52;;;9.02;;
5787;SDS011;2920;48.158;12.254;2022-12-13T13:39:57;16.58;;;7.43;;
5787;SDS011;2920;48.158;12.254;2022-12-13T13:42:27;17.30;;;8.40;;
5787;SDS011;2920;48.158;12.254;2022-12-13T13:44:54;18.95;;;8.48;;
5787;SDS011;2920;48.158;12.254;2022-12-13T13:47:30;17.30;;;7.95;;
5787;SDS011;2920;48.158;12.254;2022-12-13T13:58:08;13.10;;;8.20;;
5787;SDS011;2920;48.158;12.254;2022-12-13T14:09:47;10.30;;;6.30;;
5787;SDS011;2920;48.158;12.254;2022-12-13T14:20:47;14.23;;;7.47;;
5787;SDS011;2920;48.158;12.254;2022-12-13T14:23:27;16.48;;;7.40;;
5787;SDS011;2920;48.158;12.254;2022-12-13T14:26:08;12.27;;;6.22;;
5787;SDS011;2920;48.158;12.254;2022-12-13T14:28:59;14.55;;;7.25;;
5787;SDS011;2920;48.158;12.254;2022-12-13T14:31:37;13.63;;;5.90;;
5787;SDS011;2920;48.158;12.254;2022-12-13T14:34:04;15.93;;;8.60;;
5787;SDS011;2920;48.158;12.254;2022-12-13T14:36:31;16.38;;;9.05;;
5787;SDS011;2920;48.158;12.254;2022-12-13T14:39:06;12.95;;;6.90;;
5787;SDS011;2920;48.158;12.254;2022-12-13T14:41:49;13.48;;;6.57;;
5787;SDS011;2920;48.158;12.254;2022-12-13T14:44:20;13.75;;;6.28;;
5787;SDS011;2920;48.158;12.254;2022-12-13T14:46:49;18.42;;;9.77;;
5787;SDS011;2920;48.158;12.254;2022-12-13T14:49:15;20.23;;;9.32;;
5787;SDS011;2920;48.158;12.254;2022-12-13T14:51:41;15.95;;;7.25;;
5787;SDS011;2920;48.158;12.254;2022-12-13T14:54:07;18.80;;;7.82;;
5787;SDS011;2920;48.158;12.254;2022-12-13T14:56:55;12.82;;;6.25;;
5787;SDS011;2920;48.158;12.254;2022-12-13T14:59:25;14.55;;;7.57;;
5787;SDS011;2920;48.158;12.254;2022-12-13T15:02:13;15.38;;;8.23;;
5787;SDS011;2920;48.158;12.254;2022-12-13T15:04:43;12.77;;;7.00;;
5787;SDS011;2920;48.158;12.254;2022-12-13T15:10:18;10.05;;;6.05;;
5787;SDS011;2920;48.158;12.254;2022-12-13T15:12:52;12.82;;;6.15;;
5787;SDS011;2920;48.158;12.254;2022-12-13T15:15:28;13.00;;;6.15;;
5787;SDS011;2920;48.158;12.254;2022-12-13T15:18:30;16.30;;;7.25;;
5787;SDS011;2920;48.158;12.254;2022-12-13T15:20:49;12.00;;;6.28;;
5787;SDS011;2920;48.158;12.254;2022-12-13T15:25:57;11.95;;;5.75;;
5787;SDS011;2920;48.158;12.254;2022-12-13T15:28:25;8.82;;;4.65;;
5787;SDS011;2920;48.158;12.254;2022-12-13T15:30:52;7.93;;;4.75;;
5787;SDS011;2920;48.158;12.254;2022-12-13T15:33:26;7.95;;;4.30;;
5787;SDS011;2920;48.158;12.254;2022-12-13T15:38:45;15.07;;;5.32;;
5787;SDS011;2920;48.158;12.254;2022-12-13T15:41:28;7.40;;;4.63;;
5787;SDS011;2920;48.158;12.254;2022-12-13T15:44:01;7.00;;;3.97;;
5787;SDS011;2920;48.158;12.254;2022-12-13T15:46:29;9.00;;;4.97;;
5787;SDS011;2920;48.158;12.254;2022-12-13T15:48:56;9.60;;;4.55;;
5787;SDS011;2920;48.158;12.254;2022-12-13T15:51:24;7.38;;;4.15;;
5787;SDS011;2920;48.158;12.254;2022-12-13T15:54:00;9.80;;;4.35;;
5787;SDS011;2920;48.158;12.254;2022-12-13T15:56:29;10.68;;;5.47;;
5787;SDS011;2920;48.158;12.254;2022-12-13T16:01:27;7.45;;;3.78;;
5787;SDS011;2920;48.158;12.254;2022-12-13T16:03:53;9.43;;;4.55;;
5787;SDS011;2920;48.158;12.254;2022-12-13T16:06:19;13.98;;;6.22;;
5787;SDS011;2920;48.158;12.254;2022-12-13T16:08:48;28.17;;;11.07;;
5787;SDS011;2920;48.158;12.254;2022-12-13T16:11:15;22.83;;;9.43;;
5787;SDS011;2920;48.158;12.254;2022-12-13T16:13:50;18.50;;;8.18;;
5787;SDS011;2920;48.158;12.254;2022-12-13T16:16:29;12.25;;;6.78;;
5787;SDS011;2920;48.158;12.254;2022-12-13T16:21:21;29.25;;;11.75;;
5787;SDS011;2920;48.158;12.254;2022-12-13T16:23:47;13.15;;;6.95;;
5787;SDS011;2920;48.158;12.254;2022-12-13T16:26:12;12.85;;;5.47;;
5787;SDS011;2920;48.158;12.254;2022-12-13T16:28:38;14.15;;;6.50;;
5787;SDS011;2920;48.158;12.254;2022-12-13T16:31:17;12.40;;;5.65;;
5787;SDS011;2920;48.158;12.254;2022-12-13T16:33:45;15.13;;;5.97;;
5787;SDS011;2920;48.158;12.254;2022-12-13T16:36:10;13.73;;;6.15;;
5787;SDS011;2920;48.158;12.254;2022-12-13T16:38:35;13.73;;;6.22;;
5787;SDS011;2920;48.158;12.254;2022-12-13T16:41:01;13.48;;;6.00;;
5787;SDS011;2920;48.158;12.254;2022-12-13T16:43:27;11.45;;;5.25;;
5787;SDS011;2920;48.158;12.254;2022-12-13T16:45:54;11.68;;;5.20;;
5787;SDS011;2920;48.158;12.254;2022-12-13T16:48:20;13.55;;;5.28;;
5787;SDS011;2920;48.158;12.254;2022-12-13T16:50:46;9.10;;;4.65;;
5787;SDS011;2920;48.158;12.254;2022-12-13T16:53:14;12.20;;;5.13;;
5787;SDS011;2920;48.158;12.254;2022-12-13T16:55:40;8.82;;;5.22;;
5787;SDS011;2920;48.158;12.254;2022-12-13T16:58:06;10.27;;;5.50;;
5787;SDS011;2920;48.158;12.254;2022-12-13T17:00:35;9.50;;;4.88;;
5787;SDS011;2920;48.158;12.254;2022-12-13T17:03:02;8.98;;;4.72;;
5787;SDS011;2920;48.158;12.254;2022-12-13T17:05:28;12.68;;;5.80;;